Time;durP1;ratioP1;P1;durP2;ratioP2;P2;SDS_P1;SDS_P2;PMS_P1;PMS_P2;Temp;Humidity;BMP_temperature;BMP_pressure;BME280_temperature;BME280_humidity;BME280_pressure;Samples;Min_cycle;Max_cycle;Signal;HPM_P1;HPM_P2
2023/03/27 00:00:28;;;;;;;3.75;0.93;;;1.00;99.90;;;;;;5042986;28;20045;-59
2023/03/27 00:02:53;;;;;;;2.78;1.00;;;1.00;99.90;;;;;;5038321;28;20087;-58
2023/03/27 00:05:20;;;;;;;1.38;0.77;;;0.90;99.90;;;;;;5043046;28;20491;-56
2023/03/27 00:07:47;;;;;;;5.38;1.08;;;1.00;99.90;;;;;;5035043;28;20061;-59
2023/03/27 00:10:14;;;;;;;2.90;1.08;;;0.90;99.90;;;;;;5044043;28;20400;-59
2023/03/27 00:12:40;;;;;;;4.10;0.77;;;0.90;99.90;;;;;;5042723;28;20025;-58
2023/03/27 00:15:06;;;;;;;4.80;1.20;;;0.80;99.90;;;;;;5037239;28;20083;-58
2023/03/27 00:17:32;;;;;;;4.30;1.33;;;0.90;99.90;;;;;;5032081;28;20041;-56
2023/03/27 00:19:58;;;;;;;2.65;0.70;;;0.80;99.90;;;;;;5033107;28;20120;-59
2023/03/27 00:22:23;;;;;;;5.57;1.40;;;0.80;99.90;;;;;;5032190;28;20017;-57
2023/03/27 00:24:49;;;;;;;10.18;0.90;;;0.80;99.90;;;;;;5037298;28;20041;-58
2023/03/27 00:27:15;;;;;;;2.92;0.88;;;0.70;99.90;;;;;;5040422;28;20071;-58
2023/03/27 00:29:41;;;;;;;5.75;1.17;;;0.70;99.90;;;;;;5037889;28;20088;-59
2023/03/27 00:32:06;;;;;;;2.47;0.95;;;0.70;99.90;;;;;;5035206;28;20062;-57
2023/03/27 00:34:32;;;;;;;4.40;1.20;;;0.70;99.90;;;;;;5035371;28;20029;-59
2023/03/27 00:36:58;;;;;;;7.13;1.13;;;0.70;99.90;;;;;;5037190;28;20435;-58
2023/03/27 00:39:23;;;;;;;2.47;0.80;;;0.80;99.90;;;;;;5038268;28;20025;-56
2023/03/27 00:41:49;;;;;;;4.57;0.88;;;0.80;99.90;;;;;;5030502;28;20551;-59
2023/03/27 00:44:24;;;;;;;3.53;1.27;;;0.80;99.90;;;;;;5037142;28;20075;-59
2023/03/27 00:46:51;;;;;;;3.75;1.15;;;0.80;99.90;;;;;;5036816;28;20144;-58
2023/03/27 00:49:16;;;;;;;1.88;1.10;;;0.80;99.90;;;;;;5043785;28;20549;-59
2023/03/27 00:51:45;;;;;;;1.02;0.85;;;0.80;99.90;;;;;;5040506;28;20036;-59
2023/03/27 00:54:20;;;;;;;3.53;1.00;;;0.80;99.90;;;;;;5025453;28;20068;-58
2023/03/27 00:56:48;;;;;;;3.63;0.80;;;0.70;99.90;;;;;;5036842;28;20083;-58
2023/03/27 00:59:18;;;;;;;2.45;1.00;;;0.70;99.90;;;;;;5036761;28;20442;-59
2023/03/27 01:01:44;;;;;;;6.45;1.08;;;0.80;99.90;;;;;;5036955;28;20037;-58
2023/03/27 01:04:10;;;;;;;1.08;0.80;;;0.70;99.90;;;;;;5036102;28;20021;-59
2023/03/27 01:06:37;;;;;;;5.55;1.25;;;0.70;99.90;;;;;;5036564;28;20474;-57
2023/03/27 01:09:03;;;;;;;3.17;1.00;;;0.70;99.90;;;;;;5042798;28;20017;-59
2023/03/27 01:11:32;;;;;;;4.03;0.98;;;0.60;99.90;;;;;;5034632;28;20087;-59
2023/03/27 01:14:25;;;;;;;4.72;0.80;;;0.60;99.90;;;;;;5039790;28;20029;-59
2023/03/27 01:17:16;;;;;;;4.53;1.17;;;0.60;99.90;;;;;;5036889;28;20460;-59
2023/03/27 01:19:53;;;;;;;5.07;0.95;;;0.60;99.90;;;;;;5044934;28;20109;-59
2023/03/27 01:22:51;;;;;;;3.28;0.93;;;0.50;99.90;;;;;;5027709;28;20021;-60
2023/03/27 01:25:54;;;;;;;5.95;0.93;;;0.50;99.90;;;;;;5027090;28;20049;-60
2023/03/27 01:28:54;;;;;;;0.93;0.65;;;0.40;99.90;;;;;;5028895;28;20108;-59
2023/03/27 01:32:08;;;;;;;3.50;1.27;;;0.40;99.90;;;;;;5029375;28;20036;-58
2023/03/27 01:35:00;;;;;;;4.05;0.93;;;0.40;99.90;;;;;;5027597;28;20519;-58
2023/03/27 01:37:54;;;;;;;2.88;0.82;;;0.30;99.90;;;;;;5035038;28;20024;-59
2023/03/27 01:40:30;;;;;;;2.50;1.30;;;0.30;99.90;;;;;;5026434;28;20021;-56
2023/03/27 01:43:09;;;;;;;4.15;0.90;;;0.30;99.90;;;;;;5036505;28;20029;-59
2023/03/27 01:45:41;;;;;;;5.57;1.10;;;0.30;99.90;;;;;;5034946;28;20037;-59
2023/03/27 01:48:16;;;;;;;1.75;0.65;;;0.20;99.90;;;;;;5038480;28;20453;-60
2023/03/27 01:50:49;;;;;;;3.70;1.00;;;0.20;99.90;;;;;;5028510;28;20089;-59
2023/03/27 01:53:21;;;;;;;1.10;0.80;;;0.20;99.90;;;;;;5031692;28;20253;-59
2023/03/27 01:55:52;;;;;;;1.73;0.60;;;0.20;99.90;;;;;;5038433;28;20079;-60
2023/03/27 01:58:28;;;;;;;5.35;1.02;;;0.10;99.90;;;;;;5027215;28;20021;-59
2023/03/27 02:01:00;;;;;;;2.08;1.17;;;0.10;99.90;;;;;;5034278;28;20039;-59
2023/03/27 02:03:37;;;;;;;2.58;0.75;;;0.10;99.90;;;;;;5033184;28;20464;-59
2023/03/27 02:06:13;;;;;;;3.63;1.40;;;0.10;99.90;;;;;;5034936;28;20037;-59
2023/03/27 02:09:07;;;;;;;3.75;1.00;;;0.10;99.90;;;;;;5030745;28;20433;-59
2023/03/27 02:11:39;;;;;;;2.50;0.60;;;0.00;99.90;;;;;;5035511;28;20025;-59
2023/03/27 02:14:13;;;;;;;4.40;1.45;;;0.00;99.90;;;;;;5032310;28;20789;-59
2023/03/27 02:16:44;;;;;;;2.40;1.10;;;0.00;99.90;;;;;;5033733;28;20048;-59
2023/03/27 02:19:22;;;;;;;1.70;0.70;;;0.00;99.90;;;;;;5029264;28;20079;-59
2023/03/27 02:21:48;;;;;;;2.28;0.93;;;0.00;99.90;;;;;;5034923;28;20033;-60
2023/03/27 02:24:16;;;;;;;1.95;0.80;;;0.00;99.90;;;;;;5042039;28;20234;-59
2023/03/27 02:26:42;;;;;;;1.45;0.73;;;0.00;99.90;;;;;;5034813;28;20124;-59
2023/03/27 02:29:32;;;;;;;2.67;0.93;;;0.00;99.90;;;;;;5041842;28;20025;-59
2023/03/27 02:32:36;;;;;;;2.05;0.80;;;0.00;99.90;;;;;;5033724;28;20041;-59
2023/03/27 02:35:40;;;;;;;2.97;0.80;;;0.00;99.90;;;;;;5023429;28;20036;-59
2023/03/27 02:38:22;;;;;;;2.15;0.73;;;0.00;99.90;;;;;;5011293;28;20099;-59
2023/03/27 02:41:12;;;;;;;4.22;1.38;;;0.00;99.90;;;;;;5016920;28;20037;-59
2023/03/27 02:43:55;;;;;;;8.38;1.20;;;0.00;99.90;;;;;;5023690;28;20430;-59
2023/03/27 02:46:39;;;;;;;2.75;0.93;;;0.00;99.90;;;;;;5027120;28;20037;-58
2023/03/27 02:49:10;;;;;;;2.25;0.82;;;0.00;99.90;;;;;;5037498;28;20118;-59
2023/03/27 02:51:43;;;;;;;2.15;0.73;;;0.00;99.90;;;;;;5033274;28;20400;-59
2023/03/27 02:54:18;;;;;;;3.60;0.85;;;0.00;99.90;;;;;;5031301;28;20052;-59
2023/03/27 02:56:56;;;;;;;5.20;1.13;;;0.00;99.90;;;;;;5029937;28;20122;-59
2023/03/27 02:59:27;;;;;;;1.58;0.85;;;-0.10;99.90;;;;;;5026394;28;20095;-58
2023/03/27 03:01:53;;;;;;;6.25;1.45;;;-0.10;99.90;;;;;;5034693;28;20188;-59
2023/03/27 03:04:30;;;;;;;2.63;0.75;;;-0.10;99.90;;;;;;5030163;28;20033;-60
2023/03/27 03:06:55;;;;;;;2.67;1.00;;;-0.10;99.90;;;;;;5028876;28;20464;-58
2023/03/27 03:09:23;;;;;;;6.25;1.00;;;-0.20;99.90;;;;;;5031761;28;20029;-57
2023/03/27 03:11:52;;;;;;;2.25;0.80;;;-0.20;99.90;;;;;;5029060;28;20030;-60
2023/03/27 03:14:28;;;;;;;1.17;0.85;;;-0.20;99.90;;;;;;5036900;28;20025;-59
2023/03/27 03:16:54;;;;;;;3.85;1.02;;;-0.20;99.90;;;;;;5041789;28;20025;-59
2023/03/27 03:19:20;;;;;;;5.80;1.30;;;-0.20;99.90;;;;;;5028345;28;20026;-57
2023/03/27 03:21:48;;;;;;;3.30;1.17;;;-0.30;99.90;;;;;;5041414;28;20163;-58
2023/03/27 03:24:13;;;;;;;4.93;0.98;;;-0.30;99.90;;;;;;5028689;28;20056;-59
2023/03/27 03:26:39;;;;;;;2.30;1.00;;;-0.30;99.90;;;;;;5041686;28;20056;-57
2023/03/27 03:29:05;;;;;;;2.08;1.20;;;-0.30;99.90;;;;;;5034341;28;20113;-58
2023/03/27 03:31:41;;;;;;;6.60;1.50;;;-0.30;99.90;;;;;;5027628;28;20046;-59
2023/03/27 03:34:14;;;;;;;3.47;1.35;;;-0.40;99.90;;;;;;5024326;28;20108;-59
2023/03/27 03:36:41;;;;;;;1.67;1.15;;;-0.40;99.90;;;;;;5034280;28;20083;-59
2023/03/27 03:39:07;;;;;;;4.97;0.98;;;-0.40;99.90;;;;;;5033210;28;20028;-58
2023/03/27 03:41:33;;;;;;;3.90;0.75;;;-0.40;99.90;;;;;;5038965;28;20557;-60
2023/03/27 03:43:59;;;;;;;6.25;1.30;;;-0.40;99.90;;;;;;5042345;28;20037;-55
2023/03/27 03:46:25;;;;;;;3.00;0.98;;;-0.40;99.90;;;;;;5037308;28;20033;-57
2023/03/27 03:48:50;;;;;;;3.72;1.42;;;-0.50;99.90;;;;;;5035176;28;20021;-54
2023/03/27 03:51:16;;;;;;;1.33;1.00;;;-0.50;99.90;;;;;;5037364;28;20029;-58
2023/03/27 03:53:41;;;;;;;3.00;0.98;;;-0.50;99.90;;;;;;5038037;28;20443;-59
2023/03/27 03:56:07;;;;;;;5.72;1.20;;;-0.50;99.90;;;;;;5044233;28;20743;-59
2023/03/27 03:58:33;;;;;;;2.17;0.95;;;-0.50;99.90;;;;;;5037399;28;20823;-59
2023/03/27 04:00:58;;;;;;;4.43;1.13;;;-0.50;99.90;;;;;;5044543;28;20044;-59
2023/03/27 04:03:30;;;;;;;1.58;0.80;;;-0.50;99.90;;;;;;5042305;28;20492;-58
2023/03/27 04:05:59;;;;;;;2.45;1.02;;;-0.40;99.90;;;;;;5042658;28;20097;-59
2023/03/27 04:08:25;;;;;;;2.65;1.20;;;-0.30;99.90;;;;;;5041376;28;20128;-54
2023/03/27 04:10:51;;;;;;;5.25;1.45;;;-0.30;99.90;;;;;;5044443;28;20018;-59
2023/03/27 04:13:16;;;;;;;2.95;1.20;;;-0.20;99.90;;;;;;5040949;28;20108;-58
2023/03/27 04:15:42;;;;;;;4.85;1.25;;;-0.20;99.90;;;;;;5033633;28;20041;-57
2023/03/27 04:18:08;;;;;;;4.30;1.17;;;-0.20;99.90;;;;;;5039715;28;20024;-57
2023/03/27 04:20:33;;;;;;;2.75;1.02;;;-0.20;99.90;;;;;;5037940;28;20044;-59
2023/03/27 04:23:01;;;;;;;3.30;1.23;;;-0.20;99.90;;;;;;5040614;28;20105;-59
2023/03/27 04:25:27;;;;;;;5.00;1.40;;;-0.30;99.90;;;;;;5040388;28;20395;-57
2023/03/27 04:27:53;;;;;;;4.72;1.40;;;-0.30;99.90;;;;;;5038695;28;20076;-59
2023/03/27 04:30:21;;;;;;;1.70;0.90;;;-0.30;99.90;;;;;;5040174;28;20438;-59
2023/03/27 04:32:51;;;;;;;4.25;1.27;;;-0.30;99.90;;;;;;5039615;28;20471;-60
2023/03/27 04:35:18;;;;;;;2.20;1.15;;;-0.40;99.90;;;;;;5040195;28;20582;-59
2023/03/27 04:37:45;;;;;;;6.40;1.38;;;-0.40;99.90;;;;;;5037579;28;20036;-59
2023/03/27 04:40:12;;;;;;;2.92;1.00;;;-0.40;99.90;;;;;;5040250;28;20283;-59
2023/03/27 04:42:43;;;;;;;4.05;1.40;;;-0.40;99.90;;;;;;5038369;28;20108;-60
2023/03/27 04:45:12;;;;;;;5.45;1.00;;;-0.40;99.90;;;;;;5030504;28;20134;-59
2023/03/27 04:47:38;;;;;;;2.03;1.23;;;-0.50;99.90;;;;;;5037923;28;20115;-58
2023/03/27 04:50:05;;;;;;;3.40;1.38;;;-0.40;99.90;;;;;;5035148;28;20044;-59
2023/03/27 04:52:32;;;;;;;8.18;1.50;;;-0.50;99.90;;;;;;5037643;28;20123;-57
2023/03/27 04:54:59;;;;;;;2.63;1.48;;;-0.50;99.90;;;;;;5036263;28;20473;-59
2023/03/27 04:57:26;;;;;;;3.10;1.10;;;-0.50;99.90;;;;;;5039868;28;20017;-59
2023/03/27 04:59:52;;;;;;;3.03;1.33;;;-0.50;99.90;;;;;;5037081;28;20029;-59
2023/03/27 05:02:17;;;;;;;3.20;1.67;;;-0.60;99.90;;;;;;5040467;28;20048;-59
2023/03/27 05:04:44;;;;;;;6.35;1.42;;;-0.60;99.90;;;;;;5031426;28;20116;-59
2023/03/27 05:07:11;;;;;;;5.63;1.70;;;-0.60;99.90;;;;;;5039011;28;20057;-60
2023/03/27 05:09:36;;;;;;;7.15;2.22;;;-0.60;99.90;;;;;;5034618;28;20032;-60
2023/03/27 05:12:02;;;;;;;2.92;1.48;;;-0.60;99.90;;;;;;5024542;28;20029;-59
2023/03/27 05:14:28;;;;;;;6.22;2.20;;;-0.60;99.90;;;;;;5031199;28;20360;-60
2023/03/27 05:16:56;;;;;;;4.10;2.00;;;-0.70;99.90;;;;;;5030244;28;20075;-60
2023/03/27 05:19:22;;;;;;;5.50;1.70;;;-0.70;99.90;;;;;;5035323;28;20040;-59
2023/03/27 05:21:47;;;;;;;3.13;1.98;;;-0.70;99.90;;;;;;5033435;28;20033;-59
2023/03/27 05:24:14;;;;;;;6.43;2.00;;;-0.70;99.90;;;;;;5029730;28;20487;-59
2023/03/27 05:26:40;;;;;;;3.97;2.33;;;-0.70;99.90;;;;;;5042284;28;20215;-58
2023/03/27 05:29:07;;;;;;;5.25;2.00;;;-0.70;99.90;;;;;;5035261;28;20026;-60
2023/03/27 05:31:34;;;;;;;3.50;1.98;;;-0.70;99.90;;;;;;5037278;28;20044;-60
2023/03/27 05:34:00;;;;;;;2.50;1.70;;;-0.70;99.90;;;;;;5036319;28;20044;-58
2023/03/27 05:36:27;;;;;;;3.63;1.85;;;-0.70;99.90;;;;;;5029741;28;20032;-60
2023/03/27 05:38:53;;;;;;;5.05;2.17;;;-0.70;99.90;;;;;;5040131;28;20600;-59
2023/03/27 05:41:19;;;;;;;3.83;1.88;;;-0.70;99.90;;;;;;5034031;28;20029;-58
2023/03/27 05:43:45;;;;;;;3.83;2.00;;;-0.70;99.90;;;;;;5042161;28;20043;-59
2023/03/27 05:46:12;;;;;;;6.20;2.20;;;-0.70;99.90;;;;;;5032763;28;20041;-59
2023/03/27 05:48:38;;;;;;;6.55;2.40;;;-0.60;99.90;;;;;;5042318;28;20035;-59
2023/03/27 05:51:08;;;;;;;3.33;2.17;;;-0.60;99.90;;;;;;5034315;28;20037;-59
2023/03/27 05:53:35;;;;;;;3.83;1.80;;;-0.60;99.90;;;;;;5029837;28;20026;-59
2023/03/27 05:56:01;;;;;;;5.15;2.17;;;-0.60;99.90;;;;;;5028260;28;20056;-59
2023/03/27 05:58:27;;;;;;;5.28;2.10;;;-0.60;99.90;;;;;;5034475;28;20048;-59
2023/03/27 06:00:53;;;;;;;3.47;2.25;;;-0.60;99.90;;;;;;5039204;28;20120;-56
2023/03/27 06:03:19;;;;;;;5.28;2.28;;;-0.60;99.90;;;;;;5036505;28;20132;-59
2023/03/27 06:05:45;;;;;;;3.83;2.22;;;-0.50;99.90;;;;;;5033103;28;20029;-57
2023/03/27 06:08:10;;;;;;;7.63;2.28;;;-0.50;99.90;;;;;;5033036;28;20036;-59
2023/03/27 06:10:39;;;;;;;2.15;1.73;;;-0.50;99.90;;;;;;5037078;28;20137;-59
2023/03/27 06:13:08;;;;;;;6.03;1.98;;;-0.40;99.90;;;;;;5037534;28;20013;-59
2023/03/27 06:15:35;;;;;;;5.82;2.33;;;-0.40;99.90;;;;;;5034223;28;20092;-57
2023/03/27 06:18:02;;;;;;;5.05;2.13;;;-0.40;99.90;;;;;;5037597;28;20507;-59
2023/03/27 06:20:28;;;;;;;2.63;1.48;;;-0.40;99.90;;;;;;5036573;28;20033;-60
2023/03/27 06:22:58;;;;;;;3.47;1.35;;;-0.30;99.90;;;;;;5036523;28;20108;-58
2023/03/27 06:25:25;;;;;;;12.02;2.33;;;-0.20;99.90;;;;;;5038277;28;20395;-59
2023/03/27 06:27:52;;;;;;;5.05;1.73;;;-0.20;99.90;;;;;;5036520;28;20021;-58
2023/03/27 06:30:21;;;;;;;7.28;2.10;;;-0.10;99.90;;;;;;5037816;28;20108;-59
2023/03/27 06:32:49;;;;;;;7.13;1.67;;;0.00;99.90;;;;;;5037201;28;20022;-58
2023/03/27 06:35:16;;;;;;;3.30;1.90;;;0.20;99.90;;;;;;5038224;28;20013;-59
2023/03/27 06:37:45;;;;;;;6.38;1.85;;;0.30;99.90;;;;;;5035464;28;20029;-59
2023/03/27 06:40:21;;;;;;;3.13;2.13;;;0.40;99.90;;;;;;5036138;28;20108;-57
2023/03/27 06:42:53;;;;;;;11.00;2.55;;;0.60;99.90;;;;;;5036406;28;20072;-57
2023/03/27 06:45:21;;;;;;;3.47;1.15;;;0.80;99.90;;;;;;5032328;28;20036;-58
2023/03/27 06:47:50;;;;;;;4.53;1.75;;;0.80;99.90;;;;;;5026629;28;20488;-57
2023/03/27 06:50:16;;;;;;;3.47;1.50;;;0.80;99.90;;;;;;5031751;28;20028;-58
2023/03/27 06:52:42;;;;;;;4.88;1.65;;;0.70;99.90;;;;;;5033967;28;20136;-58
2023/03/27 06:55:08;;;;;;;3.40;1.52;;;0.70;99.90;;;;;;5035428;28;20104;-57
2023/03/27 06:57:34;;;;;;;4.65;1.55;;;0.70;99.90;;;;;;5035698;28;20028;-58
2023/03/27 07:00:00;;;;;;;5.50;2.13;;;0.60;99.90;;;;;;5033470;28;20391;-57
2023/03/27 07:02:25;;;;;;;4.90;1.80;;;0.70;99.90;;;;;;5036963;28;20379;-57
2023/03/27 07:04:51;;;;;;;7.15;1.85;;;0.70;99.90;;;;;;5036719;28;20044;-58
2023/03/27 07:07:17;;;;;;;4.28;1.77;;;0.80;99.90;;;;;;5036211;28;20487;-58
2023/03/27 07:09:42;;;;;;;3.83;1.92;;;0.80;99.90;;;;;;5030385;28;20026;-59
2023/03/27 07:12:08;;;;;;;3.33;1.30;;;0.90;99.90;;;;;;5037936;28;20022;-57
2023/03/27 07:14:34;;;;;;;2.72;1.58;;;1.00;99.90;;;;;;5035898;28;20029;-56
2023/03/27 07:17:00;;;;;;;3.13;1.83;;;1.00;99.90;;;;;;5033340;28;20052;-56
2023/03/27 07:19:26;;;;;;;3.63;1.30;;;1.10;99.90;;;;;;5033645;28;20105;-57
2023/03/27 07:21:52;;;;;;;1.30;1.13;;;1.20;99.90;;;;;;5032624;28;20087;-59
2023/03/27 07:24:18;;;;;;;2.88;1.50;;;1.30;99.90;;;;;;5033351;28;20099;-57
2023/03/27 07:26:43;;;;;;;4.32;1.40;;;1.40;99.90;;;;;;5032446;28;20079;-58
2023/03/27 07:29:09;;;;;;;3.72;1.05;;;1.50;99.90;;;;;;5033542;28;20018;-57
2023/03/27 07:31:36;;;;;;;4.78;0.90;;;1.60;99.90;;;;;;5032797;28;20036;-57
2023/03/27 07:34:03;;;;;;;3.03;1.23;;;1.70;99.90;;;;;;5032875;28;20135;-57
2023/03/27 07:36:28;;;;;;;1.13;0.73;;;1.80;99.90;;;;;;5032309;28;20431;-59
2023/03/27 07:38:54;;;;;;;5.13;1.17;;;1.90;99.90;;;;;;5039585;28;20026;-58
2023/03/27 07:41:19;;;;;;;4.63;0.88;;;2.10;99.90;;;;;;5033437;28;20463;-59
2023/03/27 07:43:45;;;;;;;9.70;1.40;;;2.20;99.90;;;;;;5040642;28;20043;-59
2023/03/27 07:46:11;;;;;;;5.30;1.63;;;2.40;99.90;;;;;;5033027;28;20403;-58
2023/03/27 07:48:37;;;;;;;5.32;1.25;;;2.60;99.90;;;;;;5040621;28;20318;-60
2023/03/27 07:51:04;;;;;;;2.65;1.20;;;2.70;99.90;;;;;;5028476;28;20029;-57
2023/03/27 07:53:30;;;;;;;7.22;1.30;;;2.90;99.90;;;;;;5028233;28;20036;-58
2023/03/27 07:55:57;;;;;;;4.05;1.20;;;3.10;99.90;;;;;;5038293;28;20029;-59
2023/03/27 07:58:23;;;;;;;5.13;1.38;;;3.20;99.90;;;;;;5035292;28;20017;-59
2023/03/27 08:00:51;;;;;;;1.60;0.80;;;3.40;99.90;;;;;;5043764;28;20040;-59
2023/03/27 08:03:18;;;;;;;2.80;1.13;;;3.40;99.90;;;;;;5036427;28;20029;-59
2023/03/27 08:05:51;;;;;;;2.10;0.85;;;3.60;99.90;;;;;;5040732;28;20026;-54
2023/03/27 08:08:17;;;;;;;3.45;1.00;;;3.70;99.90;;;;;;5032971;28;20264;-55
2023/03/27 08:10:43;;;;;;;3.13;0.77;;;3.80;99.90;;;;;;5035616;28;20109;-57
2023/03/27 08:13:11;;;;;;;4.43;1.20;;;3.90;99.90;;;;;;5037584;28;20061;-60
2023/03/27 08:15:37;;;;;;;6.30;1.35;;;4.10;99.90;;;;;;5036406;28;20034;-59
2023/03/27 08:18:02;;;;;;;7.05;1.58;;;4.20;99.90;;;;;;5038762;28;20082;-59
2023/03/27 08:20:29;;;;;;;3.88;0.90;;;4.30;99.90;;;;;;5039260;28;20450;-59
2023/03/27 08:22:55;;;;;;;6.28;0.82;;;4.40;99.90;;;;;;5030614;28;20423;-54
2023/03/27 08:25:21;;;;;;;5.18;0.98;;;4.50;99.90;;;;;;5040642;28;20029;-60
2023/03/27 08:27:47;;;;;;;2.17;0.77;;;4.60;99.90;;;;;;5039082;28;20052;-61
2023/03/27 08:30:13;;;;;;;3.03;0.80;;;4.70;99.90;;;;;;5036898;28;20025;-58
2023/03/27 08:32:40;;;;;;;1.55;0.75;;;4.70;99.90;;;;;;5054175;28;20100;-60
2023/03/27 08:35:06;;;;;;;2.90;0.70;;;4.70;99.90;;;;;;5035706;28;20112;-60
2023/03/27 08:37:32;;;;;;;1.98;1.00;;;4.70;99.90;;;;;;5039316;28;20059;-59
2023/03/27 08:40:00;;;;;;;2.72;1.35;;;4.70;99.90;;;;;;5039578;28;20032;-60
2023/03/27 08:42:39;;;;;;;6.03;1.30;;;4.70;99.90;;;;;;5054923;28;20403;-59
2023/03/27 08:45:18;;;;;;;2.83;0.77;;;4.70;99.90;;;;;;5039060;28;20302;-60
2023/03/27 08:47:49;;;;;;;5.95;0.98;;;4.80;99.90;;;;;;5036776;28;20502;-62
2023/03/27 08:50:39;;;;;;;5.30;1.55;;;4.80;99.90;;;;;;5040245;28;20055;-59
2023/03/27 08:53:16;;;;;;;2.42;0.73;;;4.90;99.90;;;;;;5025290;28;20449;-59
2023/03/27 08:55:43;;;;;;;1.27;0.50;;;5.00;99.90;;;;;;5036634;28;20439;-60
2023/03/27 08:58:19;;;;;;;2.67;0.80;;;5.20;99.90;;;;;;5034922;28;20030;-60
2023/03/27 09:00:55;;;;;;;;;;;5.30;99.90;;;;;;5036306;28;20033;-59
2023/03/27 09:03:29;;;;;;;0.95;0.68;;;5.50;99.90;;;;;;5038608;28;19913;-60
2023/03/27 09:06:01;;;;;;;2.63;0.82;;;5.50;99.90;;;;;;5040214;28;20120;-59
2023/03/27 09:08:33;;;;;;;2.92;1.20;;;5.50;99.90;;;;;;5039607;28;20060;-59
2023/03/27 09:11:23;;;;;;;5.55;1.17;;;5.40;99.90;;;;;;5037437;28;20038;-61
2023/03/27 09:13:50;;;;;;;1.65;0.80;;;5.30;99.90;;;;;;5033741;28;20029;-59
2023/03/27 09:16:28;;;;;;;1.83;0.60;;;5.10;99.90;;;;;;5036602;28;20056;-59
2023/03/27 09:19:09;;;;;;;3.95;0.82;;;5.20;99.90;;;;;;5029190;28;20045;-60
2023/03/27 09:21:46;;;;;;;3.70;0.80;;;5.40;99.90;;;;;;5040200;28;20033;-61
2023/03/27 09:24:38;;;;;;;3.58;0.85;;;5.50;99.90;;;;;;5028146;28;20049;-60
2023/03/27 09:27:18;;;;;;;3.90;1.05;;;5.80;99.90;;;;;;5041267;28;20505;-61
2023/03/27 09:29:44;;;;;;;2.83;0.95;;;5.80;99.90;;;;;;5025688;28;20387;-60
2023/03/27 09:32:14;;;;;;;1.27;0.68;;;6.10;99.90;;;;;;5041217;28;20022;-59
2023/03/27 09:34:41;;;;;;;2.78;0.60;;;6.10;99.90;;;;;;5032543;28;20025;-60
2023/03/27 09:37:15;;;;;;;5.93;1.42;;;6.00;99.90;;;;;;5031253;28;20029;-60
2023/03/27 09:39:45;;;;;;;5.90;1.33;;;5.80;99.90;;;;;;5030509;28;20491;-60
2023/03/27 09:42:20;;;;;;;2.75;1.15;;;5.90;99.90;;;;;;5031503;28;20081;-60
2023/03/27 09:44:50;;;;;;;5.65;1.25;;;6.00;99.90;;;;;;5036858;28;20491;-60
2023/03/27 09:47:52;;;;;;;2.05;0.90;;;6.10;99.90;;;;;;5038281;28;20029;-60
2023/03/27 09:50:29;;;;;;;5.53;0.98;;;6.30;99.90;;;;;;5045680;28;20491;-60
2023/03/27 09:53:17;;;;;;;3.40;1.05;;;6.50;99.90;;;;;;5037036;28;20387;-61
2023/03/27 09:55:51;;;;;;;3.92;0.95;;;6.50;99.90;;;;;;5036996;28;20037;-59
2023/03/27 09:58:26;;;;;;;3.47;0.70;;;6.50;99.90;;;;;;5048457;28;20128;-60
2023/03/27 10:01:12;;;;;;;2.83;1.17;;;6.30;99.90;;;;;;5030706;28;20038;-59
2023/03/27 10:03:52;;;;;;;2.42;0.65;;;6.40;99.90;;;;;;5026351;28;20064;-60
2023/03/27 10:06:29;;;;;;;2.00;0.90;;;6.60;99.90;;;;;;5027171;28;20025;-59
2023/03/27 10:08:59;;;;;;;3.10;1.08;;;6.60;99.90;;;;;;5035102;28;20360;-55
2023/03/27 10:11:30;;;;;;;3.55;1.00;;;6.50;99.90;;;;;;5036679;28;20491;-59
2023/03/27 10:13:58;;;;;;;1.30;0.68;;;6.40;99.90;;;;;;5033204;28;20100;-59
2023/03/27 10:16:26;;;;;;;3.15;0.77;;;6.20;99.90;;;;;;5034907;28;20353;-59
2023/03/27 10:18:56;;;;;;;1.77;0.68;;;6.20;99.90;;;;;;5035306;28;20033;-59
2023/03/27 10:21:33;;;;;;;3.55;1.50;;;6.00;99.90;;;;;;5034405;28;20031;-59
2023/03/27 10:24:20;;;;;;;2.47;0.93;;;5.70;99.90;;;;;;5038273;28;20025;-60
2023/03/27 10:26:47;;;;;;;2.63;0.95;;;5.40;99.90;;;;;;5035295;28;20101;-60
2023/03/27 10:29:25;;;;;;;1.70;0.50;;;5.10;99.90;;;;;;5036559;28;20120;-63
2023/03/27 10:31:54;;;;;;;5.80;0.55;;;4.80;99.90;;;;;;5028903;28;20495;-59
2023/03/27 10:34:29;;;;;;;1.20;0.60;;;4.40;99.90;;;;;;5023767;28;20073;-61
2023/03/27 10:36:54;;;;;;;0.45;0.28;;;3.70;99.90;;;;;;5042013;28;20057;-60
2023/03/27 10:39:26;;;;;;;0.52;0.40;;;3.20;99.90;;;;;;5030561;28;20033;-59
2023/03/27 10:41:52;;;;;;;1.08;0.50;;;2.80;99.90;;;;;;5030856;28;20026;-60
2023/03/27 10:44:20;;;;;;;3.03;0.75;;;2.50;99.90;;;;;;5034571;28;20056;-59
2023/03/27 10:46:46;;;;;;;0.90;0.57;;;2.50;99.90;;;;;;5030783;28;20049;-59
2023/03/27 10:49:41;;;;;;;2.47;0.50;;;2.60;99.90;;;;;;5034455;28;20514;-58
2023/03/27 10:52:13;;;;;;;4.10;1.63;;;2.60;99.90;;;;;;5021465;28;20029;-60
2023/03/27 10:55:08;;;;;;;0.60;0.50;;;2.80;99.90;;;;;;5034019;28;20128;-57
2023/03/27 10:57:34;;;;;;;2.50;0.70;;;3.10;99.90;;;;;;5024992;28;20042;-59
2023/03/27 11:00:17;;;;;;;1.13;0.50;;;3.30;99.90;;;;;;5033059;28;20096;-57
2023/03/27 11:02:57;;;;;;;2.03;0.45;;;3.40;99.90;;;;;;5034692;28;20528;-56
2023/03/27 11:05:30;;;;;;;0.50;0.50;;;3.60;99.90;;;;;;5031459;28;20421;-59
2023/03/27 11:07:56;;;;;;;1.42;0.40;;;3.90;99.90;;;;;;5035931;28;20421;-59
2023/03/27 11:10:27;;;;;;;4.50;0.40;;;4.00;99.90;;;;;;5030793;28;20033;-60
2023/03/27 11:12:58;;;;;;;1.08;0.40;;;4.20;99.90;;;;;;5035931;28;20051;-58
2023/03/27 11:15:35;;;;;;;2.08;0.70;;;4.40;99.90;;;;;;5032177;28;20098;-60
2023/03/27 11:18:24;;;;;;;0.55;0.40;;;4.60;99.90;;;;;;5036076;28;20206;-60
2023/03/27 11:20:59;;;;;;;1.75;0.43;;;4.80;99.90;;;;;;5020312;28;20065;-59
2023/03/27 11:23:28;;;;;;;2.92;0.82;;;4.90;99.90;;;;;;5033842;28;20018;-58
2023/03/27 11:25:58;;;;;;;1.27;0.43;;;5.00;99.90;;;;;;5035278;28;20036;-58
2023/03/27 11:28:41;;;;;;;3.03;0.55;;;5.10;99.90;;;;;;5031008;28;20021;-61
2023/03/27 11:31:37;;;;;;;3.35;0.40;;;5.20;99.90;;;;;;5037703;28;20048;-61
2023/03/27 11:34:11;;;;;;;4.85;0.68;;;5.30;99.90;;;;;;5042066;28;20037;-59
2023/03/27 11:36:51;;;;;;;2.83;1.00;;;5.40;99.90;;;;;;5038044;28;20745;-60
2023/03/27 11:39:26;;;;;;;1.38;0.38;;;5.40;99.90;;;;;;5021537;28;20112;-61
2023/03/27 11:42:01;;;;;;;1.23;0.32;;;5.40;99.90;;;;;;5037890;28;20108;-56
2023/03/27 11:44:30;;;;;;;1.95;0.60;;;5.30;99.90;;;;;;5041866;28;20034;-58
2023/03/27 11:47:11;;;;;;;3.53;0.77;;;5.30;99.90;;;;;;5039542;28;20045;-59
2023/03/27 11:49:55;;;;;;;0.45;0.43;;;5.30;99.90;;;;;;5030182;28;20074;-59
2023/03/27 11:52:41;;;;;;;2.15;1.17;;;5.20;99.90;;;;;;5031589;28;20414;-58
2023/03/27 11:55:18;;;;;;;2.72;0.52;;;5.00;99.90;;;;;;5039275;28;20589;-60
2023/03/27 11:58:25;;;;;;;1.48;0.45;;;4.50;99.90;;;;;;5026181;28;20057;-55
2023/03/27 12:00:57;;;;;;;1.70;0.68;;;4.20;99.90;;;;;;5041587;28;20045;-61
2023/03/27 12:03:58;;;;;;;1.73;0.50;;;3.90;99.90;;;;;;5031313;28;20125;-61
2023/03/27 12:06:59;;;;;;;2.65;0.85;;;3.70;99.90;;;;;;5006877;28;20405;-58
2023/03/27 12:09:55;;;;;;;1.88;1.20;;;3.70;99.90;;;;;;5028732;28;20519;-55
2023/03/27 12:12:54;;;;;;;2.15;0.40;;;3.90;99.90;;;;;;5034658;28;20029;-59
2023/03/27 12:15:38;;;;;;;2.67;0.50;;;4.10;99.90;;;;;;5036388;28;20109;-60
2023/03/27 12:18:13;;;;;;;2.80;0.60;;;4.30;99.90;;;;;;5038798;28;20128;-60
2023/03/27 12:20:59;;;;;;;1.67;0.73;;;4.50;99.90;;;;;;5038249;28;20022;-53
2023/03/27 12:23:58;;;;;;;1.17;0.60;;;4.70;99.90;;;;;;5036007;28;20029;-55
2023/03/27 12:26:36;;;;;;;3.08;0.95;;;4.80;99.90;;;;;;5024683;28;20430;-59
2023/03/27 12:29:22;;;;;;;2.88;0.50;;;4.90;99.90;;;;;;5037580;28;20147;-59
2023/03/27 12:32:25;;;;;;;1.70;0.93;;;5.10;99.90;;;;;;5036881;28;20273;-55
2023/03/27 12:35:09;;;;;;;3.80;0.75;;;5.20;99.90;;;;;;5035270;28;20025;-52
2023/03/27 12:37:45;;;;;;;0.35;0.30;;;5.40;99.90;;;;;;5031142;28;20040;-62
2023/03/27 12:40:34;;;;;;;4.97;0.80;;;5.50;99.90;;;;;;5025472;28;20036;-53
2023/03/27 12:43:28;;;;;;;0.95;0.45;;;5.60;99.90;;;;;;5032987;28;20021;-57
2023/03/27 12:46:11;;;;;;;2.42;0.90;;;5.60;99.90;;;;;;5030263;28;20527;-56
2023/03/27 12:48:55;;;;;;;4.47;0.40;;;5.50;99.90;;;;;;5042721;28;20032;-57
2023/03/27 12:52:03;;;;;;;3.67;0.88;;;5.50;99.90;;;;;;5028955;28;20415;-51
2023/03/27 12:54:37;;;;;;;0.40;0.40;;;5.50;99.90;;;;;;5031116;28;20025;-57
2023/03/27 12:57:20;;;;;;;2.38;0.77;;;5.30;99.90;;;;;;5039638;28;20025;-56
2023/03/27 12:59:49;;;;;;;1.88;0.45;;;5.20;99.90;;;;;;5033597;28;20041;-55
2023/03/27 13:02:52;;;;;;;1.90;0.88;;;5.00;99.90;;;;;;5034474;28;20127;-58
2023/03/27 13:05:43;;;;;;;0.75;0.32;;;4.90;99.90;;;;;;5037782;28;20116;-55
2023/03/27 13:08:33;;;;;;;2.92;0.57;;;4.80;99.90;;;;;;5025378;28;20041;-60
2023/03/27 13:11:30;;;;;;;2.50;0.70;;;4.80;99.90;;;;;;5037636;28;20109;-57
2023/03/27 13:14:21;;;;;;;2.17;0.77;;;4.80;99.90;;;;;;5032974;28;20107;-57
2023/03/27 13:17:08;;;;;;;4.28;0.40;;;4.90;99.90;;;;;;5038086;28;20041;-56
2023/03/27 13:19:40;;;;;;;6.18;0.93;;;5.10;99.90;;;;;;5031359;28;20428;-56
2023/03/27 13:22:26;;;;;;;2.03;0.43;;;5.40;99.90;;;;;;5035991;28;20033;-59
2023/03/27 13:25:07;;;;;;;1.38;1.13;;;5.70;99.90;;;;;;5037752;28;20036;-59